createdAt,value
2023-01-12T00:01:41.875Z,100.00
2023-01-12T00:04:08.513Z,100.00
2023-01-12T00:06:34.962Z,100.00
2023-01-12T00:09:05.541Z,100.00
2023-01-12T00:11:32.084Z,100.00
2023-01-12T00:13:58.807Z,100.00
2023-01-12T00:16:34.668Z,100.00
2023-01-12T00:19:15.894Z,100.00
2023-01-12T00:21:50.611Z,100.00
2023-01-12T00:24:18.525Z,100.00
2023-01-12T00:26:46.705Z,100.00
2023-01-12T00:29:13.179Z,100.00
2023-01-12T00:31:40.220Z,100.00
2023-01-12T00:34:06.808Z,100.00
2023-01-12T00:36:33.209Z,100.00
2023-01-12T00:38:59.609Z,100.00
2023-01-12T00:41:44.483Z,100.00
2023-01-12T00:44:29.672Z,100.00
2023-01-12T00:46:56.093Z,100.00
2023-01-12T00:49:22.553Z,100.00
2023-01-12T00:51:49.003Z,100.00
2023-01-12T00:54:15.411Z,100.00
2023-01-12T00:56:41.826Z,100.00
2023-01-12T00:59:08.358Z,100.00
2023-01-12T01:01:35.242Z,100.00
2023-01-12T01:04:02.590Z,100.00
2023-01-12T01:06:29.014Z,100.00
2023-01-12T01:08:55.411Z,100.00
2023-01-12T01:11:22.046Z,100.00
2023-01-12T01:13:49.104Z,100.00
2023-01-12T01:16:17.107Z,100.00
2023-01-12T01:18:43.646Z,100.00
2023-01-12T01:21:11.995Z,100.00
2023-01-12T01:23:39.901Z,100.00
2023-01-12T01:26:09.709Z,100.00
2023-01-12T01:28:36.960Z,100.00
2023-01-12T01:31:09.583Z,100.00
2023-01-12T01:33:36.203Z,100.00
2023-01-12T01:36:03.456Z,100.00
2023-01-12T01:38:30.346Z,100.00
2023-01-12T01:40:57.567Z,100.00
2023-01-12T01:43:26.032Z,100.00
2023-01-12T01:46:03.548Z,100.00
2023-01-12T01:48:34.166Z,100.00
2023-01-12T01:51:08.308Z,100.00
2023-01-12T01:53:37.990Z,100.00
2023-01-12T01:56:11.161Z,100.00
2023-01-12T01:58:43.052Z,100.00
2023-01-12T02:01:10.704Z,100.00
2023-01-12T02:03:38.334Z,100.00
2023-01-12T02:06:06.904Z,100.00
2023-01-12T02:08:45.535Z,100.00
2023-01-12T02:11:31.302Z,100.00
2023-01-12T02:14:16.226Z,100.00
2023-01-12T02:17:00.929Z,100.00
2023-01-12T02:19:53.498Z,100.00
2023-01-12T02:23:04.061Z,100.00
2023-01-12T02:25:58.021Z,100.00
2023-01-12T02:29:09.341Z,100.00
2023-01-12T02:32:00.793Z,100.00
2023-01-12T02:34:45.533Z,100.00
2023-01-12T02:37:30.649Z,100.00
2023-01-12T02:40:06.083Z,100.00
2023-01-12T02:42:41.423Z,100.00
2023-01-12T02:45:13.725Z,100.00
2023-01-12T02:47:50.661Z,100.00
2023-01-12T02:50:25.500Z,100.00
2023-01-12T02:52:57.693Z,100.00
2023-01-12T02:55:27.067Z,100.00
2023-01-12T02:57:56.508Z,100.00
2023-01-12T03:00:23.681Z,100.00
2023-01-12T03:02:50.626Z,100.00
2023-01-12T03:05:25.993Z,100.00
2023-01-12T03:07:55.993Z,100.00
2023-01-12T03:10:52.703Z,100.00
2023-01-12T03:13:20.272Z,100.00
2023-01-12T03:15:50.555Z,100.00
2023-01-12T03:18:26.999Z,100.00
2023-01-12T03:20:59.523Z,100.00
2023-01-12T03:23:37.115Z,100.00
2023-01-12T03:26:06.414Z,100.00
2023-01-12T03:28:46.473Z,100.00
2023-01-12T03:31:13.829Z,100.00
2023-01-12T03:33:42.654Z,100.00
2023-01-12T03:36:20.123Z,100.00
2023-01-12T03:38:59.371Z,100.00
2023-01-12T03:41:34.587Z,100.00
2023-01-12T03:44:04.749Z,100.00
2023-01-12T03:46:39.982Z,100.00
2023-01-12T03:49:14.911Z,100.00
2023-01-12T03:51:45.318Z,100.00
2023-01-12T03:54:14.276Z,100.00
2023-01-12T03:56:42.128Z,100.00
2023-01-12T03:59:09.601Z,100.00
2023-01-12T04:01:36.774Z,100.00
2023-01-12T04:04:04.291Z,100.00
2023-01-12T04:06:30.668Z,100.00
2023-01-12T04:08:57.063Z,100.00
2023-01-12T04:11:42.030Z,100.00
2023-01-12T04:14:08.523Z,100.00
2023-01-12T04:16:34.983Z,100.00
2023-01-12T04:19:01.399Z,100.00
2023-01-12T04:21:56.815Z,100.00
2023-01-12T04:24:23.209Z,100.00
2023-01-12T04:26:49.669Z,100.00
2023-01-12T04:29:16.374Z,100.00
2023-01-12T04:31:42.797Z,100.00
2023-01-12T04:34:09.273Z,100.00
2023-01-12T04:36:35.730Z,100.00
2023-01-12T04:39:02.496Z,100.00
2023-01-12T04:41:28.896Z,100.00
2023-01-12T04:43:55.292Z,100.00
2023-01-12T04:46:21.671Z,100.00
2023-01-12T04:48:48.069Z,100.00
2023-01-12T04:51:14.455Z,100.00
2023-01-12T04:53:40.927Z,100.00
2023-01-12T04:56:08.220Z,100.00
2023-01-12T04:58:35.161Z,100.00
2023-01-12T05:01:09.100Z,100.00
2023-01-12T05:03:35.660Z,100.00
2023-01-12T05:06:02.738Z,100.00
2023-01-12T05:08:47.754Z,100.00
2023-01-12T05:11:14.376Z,100.00
2023-01-12T05:13:40.917Z,100.00
2023-01-12T05:16:18.180Z,100.00
2023-01-12T05:18:45.544Z,100.00
2023-01-12T05:21:13.747Z,100.00
2023-01-12T05:23:40.196Z,100.00
2023-01-12T05:26:07.316Z,100.00
2023-01-12T05:28:34.396Z,100.00
2023-01-12T05:31:09.077Z,99.98
2023-01-12T05:33:37.352Z,100.00
2023-01-12T05:36:05.921Z,100.00
2023-01-12T05:38:32.535Z,100.00
2023-01-12T05:41:00.878Z,99.70
2023-01-12T05:43:47.233Z,99.48
2023-01-12T05:46:15.015Z,99.54
2023-01-12T05:48:42.100Z,99.69
2023-01-12T05:51:10.184Z,99.42
2023-01-12T05:53:36.988Z,99.84
2023-01-12T05:56:08.098Z,98.91
2023-01-12T05:58:34.833Z,99.04
2023-01-12T06:01:01.259Z,99.18
2023-01-12T06:03:28.076Z,99.27
2023-01-12T06:05:55.901Z,98.71
2023-01-12T06:08:22.398Z,98.79
2023-01-12T06:10:48.804Z,98.44
2023-01-12T06:13:33.915Z,98.52
2023-01-12T06:16:04.995Z,98.54
2023-01-12T06:18:35.189Z,98.73
2023-01-12T06:21:02.536Z,98.80
2023-01-12T06:23:35.399Z,99.02
2023-01-12T06:26:09.678Z,98.40
2023-01-12T06:28:38.631Z,98.26
2023-01-12T06:31:07.785Z,99.18
2023-01-12T06:33:34.896Z,98.46
2023-01-12T06:36:01.894Z,98.42
2023-01-12T06:38:30.938Z,99.23
2023-01-12T06:41:05.633Z,98.52
2023-01-12T06:43:32.202Z,98.52
2023-01-12T06:45:58.720Z,98.19
2023-01-12T06:48:39.167Z,98.69
2023-01-12T06:51:06.136Z,98.77
2023-01-12T06:53:32.550Z,98.84
2023-01-12T06:55:58.967Z,98.20
2023-01-12T06:58:25.349Z,98.25
2023-01-12T07:00:51.835Z,98.49
2023-01-12T07:03:19.817Z,98.32
2023-01-12T07:05:46.869Z,98.52
2023-01-12T07:08:16.100Z,99.13
2023-01-12T07:10:43.257Z,98.40
2023-01-12T07:13:09.702Z,98.67
2023-01-12T07:15:36.519Z,98.99
2023-01-12T07:18:03.093Z,98.96
2023-01-12T07:20:29.923Z,98.26
2023-01-12T07:22:56.428Z,98.67
2023-01-12T07:25:25.039Z,98.22
2023-01-12T07:27:56.792Z,97.52
2023-01-12T07:30:25.037Z,97.99
2023-01-12T07:32:52.397Z,97.74
2023-01-12T07:35:19.166Z,97.87
2023-01-12T07:37:55.712Z,97.28
2023-01-12T07:40:22.543Z,97.58
2023-01-12T07:42:49.044Z,97.79
2023-01-12T07:45:15.542Z,97.66
2023-01-12T07:47:41.971Z,97.79
2023-01-12T07:50:09.067Z,97.63
2023-01-12T07:52:35.457Z,100.00
2023-01-12T07:55:01.908Z,97.91
2023-01-12T07:57:29.319Z,96.16
2023-01-12T07:59:55.737Z,95.85
2023-01-12T08:02:22.208Z,96.07
2023-01-12T08:04:48.635Z,95.92
2023-01-12T08:07:15.180Z,96.23
2023-01-12T08:09:41.719Z,96.09
2023-01-12T08:12:08.161Z,95.69
2023-01-12T08:14:37.409Z,94.17
2023-01-12T08:17:08.459Z,96.04
2023-01-12T08:19:39.233Z,94.71
2023-01-12T08:22:15.703Z,96.05
2023-01-12T08:24:47.752Z,95.27
2023-01-12T08:27:16.626Z,94.57
2023-01-12T08:29:47.253Z,94.94
2023-01-12T08:32:17.885Z,96.88
2023-01-12T08:34:48.805Z,95.12
2023-01-12T08:37:19.425Z,94.24
2023-01-12T08:39:46.115Z,94.31
2023-01-12T08:42:13.007Z,94.54
2023-01-12T08:44:39.652Z,94.93
2023-01-12T08:47:22.901Z,94.42
2023-01-12T08:49:49.347Z,94.48
2023-01-12T08:52:16.055Z,94.67
2023-01-12T08:54:42.540Z,94.81
2023-01-12T08:57:09.041Z,95.05
2023-01-12T08:59:35.471Z,94.35
2023-01-12T09:02:25.162Z,94.93
2023-01-12T09:04:51.653Z,95.57
2023-01-12T09:07:19.612Z,95.06
2023-01-12T09:09:46.024Z,95.21
2023-01-12T09:12:12.448Z,94.63
2023-01-12T09:14:39.197Z,94.57
2023-01-12T09:17:06.775Z,94.73
2023-01-12T09:19:33.467Z,94.07
2023-01-12T09:21:59.904Z,93.89
2023-01-12T09:24:26.616Z,93.52
2023-01-12T09:26:53.045Z,93.17
2023-01-12T09:29:19.457Z,93.29
2023-01-12T09:31:47.056Z,93.19
2023-01-12T09:34:13.735Z,93.41
2023-01-12T09:36:40.627Z,93.02
2023-01-12T09:39:15.497Z,92.27
2023-01-12T09:42:08.548Z,92.03
2023-01-12T09:44:59.208Z,91.80
2023-01-12T09:47:33.640Z,91.73
2023-01-12T09:50:10.399Z,91.41
2023-01-12T09:52:43.415Z,90.50
2023-01-12T09:55:14.809Z,91.12
2023-01-12T09:58:02.420Z,89.98
2023-01-12T10:00:28.912Z,90.29
2023-01-12T10:03:14.151Z,90.04
2023-01-12T10:05:52.240Z,89.46
2023-01-12T10:08:23.462Z,89.84
2023-01-12T10:11:18.629Z,88.52
2023-01-12T10:14:03.357Z,87.58
2023-01-12T10:16:58.621Z,87.87
2023-01-12T10:19:28.486Z,87.96
2023-01-12T10:21:57.321Z,87.72
2023-01-12T10:24:25.196Z,86.81
2023-01-12T10:27:00.183Z,87.23
2023-01-12T10:29:26.779Z,86.30
2023-01-12T10:31:53.310Z,87.05
2023-01-12T10:34:19.722Z,87.46
2023-01-12T10:36:55.685Z,88.35
2023-01-12T10:39:35.265Z,89.20
2023-01-12T10:42:42.847Z,90.67
2023-01-12T10:45:18.646Z,91.55
2023-01-12T10:47:46.115Z,91.24
2023-01-12T10:50:32.660Z,93.82
2023-01-12T10:53:06.082Z,96.12
2023-01-12T10:55:37.922Z,98.19
2023-01-12T10:58:04.355Z,99.26
2023-01-12T11:00:31.129Z,100.00
2023-01-12T11:02:57.643Z,100.00
2023-01-12T11:05:34.889Z,100.00
2023-01-12T11:08:01.897Z,100.00
2023-01-12T11:10:35.683Z,100.00
2023-01-12T11:13:05.757Z,100.00
2023-01-12T11:15:39.038Z,100.00
2023-01-12T11:18:24.811Z,100.00
2023-01-12T11:21:04.490Z,100.00
2023-01-12T11:23:56.479Z,100.00
2023-01-12T11:26:30.755Z,100.00
2023-01-12T11:29:06.034Z,100.00
2023-01-12T11:31:38.827Z,100.00
2023-01-12T11:34:16.997Z,100.00
2023-01-12T11:36:49.143Z,100.00
2023-01-12T11:39:20.377Z,100.00
2023-01-12T11:42:09.330Z,100.00
2023-01-12T11:44:47.071Z,100.00
2023-01-12T11:47:23.667Z,100.00
2023-01-12T11:50:04.384Z,100.00
2023-01-12T11:52:31.068Z,100.00
2023-01-12T11:54:57.670Z,100.00
2023-01-12T11:57:45.792Z,100.00
2023-01-12T12:00:51.611Z,100.00
2023-01-12T12:03:54.540Z,100.00
2023-01-12T12:06:33.422Z,100.00
2023-01-12T12:09:19.838Z,100.00
2023-01-12T12:12:14.505Z,100.00
2023-01-12T12:14:55.087Z,98.35
2023-01-12T12:17:42.693Z,97.89
2023-01-12T12:20:38.105Z,97.70
2023-01-12T12:23:32.441Z,96.62
2023-01-12T12:26:35.342Z,95.78
2023-01-12T12:29:14.591Z,95.73
2023-01-12T12:31:49.508Z,95.24
2023-01-12T12:34:34.917Z,95.41
2023-01-12T12:37:21.124Z,94.21
2023-01-12T12:39:55.496Z,93.88
2023-01-12T12:43:20.952Z,93.89
2023-01-12T12:45:57.037Z,93.24
2023-01-12T12:48:30.207Z,93.39
2023-01-12T12:51:04.500Z,92.57
2023-01-12T12:53:35.899Z,92.46
2023-01-12T12:56:11.070Z,92.21
2023-01-12T12:58:48.853Z,92.90
2023-01-12T13:01:21.159Z,92.36
2023-01-12T13:03:52.899Z,92.08
2023-01-12T13:06:32.159Z,92.24
2023-01-12T13:09:00.985Z,91.83
2023-01-12T13:11:54.252Z,92.30
2023-01-12T13:14:32.046Z,91.88
2023-01-12T13:17:03.722Z,92.18
2023-01-12T13:19:37.197Z,92.25
2023-01-12T13:22:25.808Z,91.69
2023-01-12T13:24:53.865Z,91.74
2023-01-12T13:27:56.360Z,91.96
2023-01-12T13:30:28.702Z,91.82
2023-01-12T13:32:55.066Z,91.65
2023-01-12T13:35:33.610Z,91.23
2023-01-12T13:38:18.094Z,91.14
2023-01-12T13:40:55.895Z,91.61
2023-01-12T13:43:33.217Z,91.44
2023-01-12T13:46:03.892Z,90.95
2023-01-12T13:48:33.540Z,90.81
2023-01-12T13:51:06.260Z,90.42
2023-01-12T13:53:32.700Z,91.24
2023-01-12T13:56:01.615Z,91.01
2023-01-12T13:58:37.062Z,90.96
2023-01-12T14:01:04.769Z,91.03
2023-01-12T14:03:49.397Z,90.07
2023-01-12T14:06:24.214Z,91.24
2023-01-12T14:09:05.589Z,91.33
2023-01-12T14:12:02.950Z,91.44
2023-01-12T14:15:22.717Z,91.31
2023-01-12T14:17:49.373Z,91.02
2023-01-12T14:20:21.727Z,91.08
2023-01-12T14:22:48.557Z,90.74
2023-01-12T14:25:20.785Z,90.76
2023-01-12T14:27:54.310Z,91.43
2023-01-12T14:30:25.163Z,91.05
2023-01-12T14:32:53.521Z,90.34
2023-01-12T14:35:22.623Z,90.23
2023-01-12T14:37:52.576Z,90.96
2023-01-12T14:40:25.690Z,90.72
2023-01-12T14:43:11.322Z,90.38
2023-01-12T14:46:03.027Z,91.01
2023-01-12T14:48:32.175Z,90.72
2023-01-12T14:51:08.331Z,90.41
2023-01-12T14:53:39.604Z,90.75
2023-01-12T14:56:09.813Z,90.85
2023-01-12T14:58:36.330Z,90.88
2023-01-12T15:01:02.932Z,90.79
2023-01-12T15:03:39.403Z,90.95
2023-01-12T15:06:14.888Z,90.94
2023-01-12T15:08:53.291Z,90.79
2023-01-12T15:11:30.657Z,90.04
2023-01-12T15:13:59.444Z,90.66
2023-01-12T15:16:44.412Z,91.40
2023-01-12T15:19:29.460Z,90.79
2023-01-12T15:22:15.928Z,91.00
2023-01-12T15:25:01.101Z,90.75
2023-01-12T15:27:28.559Z,91.18
2023-01-12T15:29:55.495Z,90.87
2023-01-12T15:32:46.101Z,90.76
2023-01-12T15:35:23.676Z,90.84
2023-01-12T15:37:52.773Z,91.04
2023-01-12T15:40:19.945Z,90.87
2023-01-12T15:42:47.303Z,90.54
2023-01-12T15:45:34.495Z,90.84
2023-01-12T15:48:02.163Z,91.38
2023-01-12T15:50:29.274Z,91.48
2023-01-12T15:52:58.183Z,91.55
2023-01-12T15:55:24.943Z,91.70
2023-01-12T15:57:52.170Z,91.94
2023-01-12T16:00:22.247Z,91.52
2023-01-12T16:02:51.016Z,91.87
2023-01-12T16:05:20.471Z,91.70
2023-01-12T16:07:48.750Z,91.88
2023-01-12T16:10:17.569Z,91.50
2023-01-12T16:12:44.379Z,91.40
2023-01-12T16:15:19.732Z,91.71
2023-01-12T16:17:46.724Z,91.58
2023-01-12T16:20:13.700Z,91.56
2023-01-12T16:22:40.093Z,91.55
2023-01-12T16:25:07.654Z,92.68
2023-01-12T16:27:36.164Z,92.50
2023-01-12T16:30:07.713Z,93.02
2023-01-12T16:32:34.314Z,92.77
2023-01-12T16:35:00.772Z,93.34
2023-01-12T16:37:30.014Z,92.98
2023-01-12T16:39:56.521Z,93.40
2023-01-12T16:42:23.203Z,93.60
2023-01-12T16:44:50.226Z,93.61
2023-01-12T16:47:19.737Z,92.86
2023-01-12T16:49:51.766Z,92.96
2023-01-12T16:52:20.459Z,92.82
2023-01-12T16:54:47.015Z,93.97
2023-01-12T16:57:16.714Z,93.23
2023-01-12T16:59:43.525Z,93.42
2023-01-12T17:02:13.864Z,93.82
2023-01-12T17:04:42.222Z,94.33
2023-01-12T17:07:09.153Z,94.27
2023-01-12T17:09:37.270Z,95.00
2023-01-12T17:12:04.450Z,95.40
2023-01-12T17:14:33.523Z,95.65
2023-01-12T17:17:03.902Z,95.82
2023-01-12T17:19:32.931Z,94.85
2023-01-12T17:22:01.448Z,94.58
2023-01-12T17:24:30.131Z,95.07
2023-01-12T17:26:57.254Z,94.48
2023-01-12T17:29:25.522Z,95.09
2023-01-12T17:31:53.708Z,94.96
2023-01-12T17:34:20.922Z,94.33
2023-01-12T17:36:47.605Z,94.93
2023-01-12T17:39:17.609Z,94.45
2023-01-12T17:42:02.950Z,94.44
2023-01-12T17:44:30.489Z,94.70
2023-01-12T17:46:57.319Z,95.18
2023-01-12T17:49:24.294Z,95.29
2023-01-12T17:51:50.985Z,94.74
2023-01-12T17:54:17.443Z,94.95
2023-01-12T17:56:44.022Z,95.46
2023-01-12T17:59:16.190Z,95.26
2023-01-12T18:01:42.996Z,94.69
2023-01-12T18:04:09.503Z,94.91
2023-01-12T18:06:35.938Z,94.81
2023-01-12T18:09:03.096Z,94.60
2023-01-12T18:11:31.197Z,95.05
2023-01-12T18:13:58.730Z,95.40
2023-01-12T18:16:25.675Z,94.71
2023-01-12T18:18:52.981Z,94.90
2023-01-12T18:21:22.607Z,95.43
2023-01-12T18:23:50.154Z,94.56
2023-01-12T18:26:29.291Z,94.38
2023-01-12T18:28:57.428Z,94.79
2023-01-12T18:31:31.380Z,95.17
2023-01-12T18:34:05.818Z,95.53
2023-01-12T18:36:34.754Z,94.23
2023-01-12T18:39:01.162Z,94.76
2023-01-12T18:41:46.070Z,94.02
2023-01-12T18:44:12.489Z,94.03
2023-01-12T18:47:02.211Z,93.74
2023-01-12T18:49:31.619Z,93.96
2023-01-12T18:52:17.310Z,93.34
2023-01-12T18:54:45.110Z,93.57
2023-01-12T18:57:13.912Z,93.10
2023-01-12T18:59:42.016Z,93.09
2023-01-12T19:02:13.668Z,93.06
2023-01-12T19:04:42.814Z,92.97
2023-01-12T19:07:12.082Z,92.81
2023-01-12T19:09:38.723Z,93.15
2023-01-12T19:12:06.333Z,92.49
2023-01-12T19:14:56.399Z,92.15
2023-01-12T19:17:32.575Z,92.43
2023-01-12T19:20:06.218Z,92.51
2023-01-12T19:22:51.660Z,92.47
2023-01-12T19:25:41.241Z,91.57
2023-01-12T19:28:32.035Z,92.58
2023-01-12T19:31:03.740Z,93.52
2023-01-12T19:33:30.384Z,94.27
2023-01-12T19:35:56.779Z,95.48
2023-01-12T19:38:23.290Z,96.01
2023-01-12T19:40:54.449Z,96.29
2023-01-12T19:43:25.876Z,97.56
2023-01-12T19:45:55.103Z,98.95
2023-01-12T19:48:24.424Z,99.71
2023-01-12T19:50:52.179Z,100.00
2023-01-12T19:53:20.836Z,100.00
2023-01-12T19:55:48.557Z,100.00
2023-01-12T19:58:14.994Z,100.00
2023-01-12T20:00:44.986Z,100.00
2023-01-12T20:03:17.483Z,100.00
2023-01-12T20:05:47.256Z,100.00
2023-01-12T20:08:14.936Z,100.00
2023-01-12T20:10:41.374Z,100.00
2023-01-12T20:13:08.900Z,100.00
2023-01-12T20:15:38.898Z,100.00
2023-01-12T20:18:08.421Z,100.00
2023-01-12T20:20:35.047Z,100.00
2023-01-12T20:23:01.450Z,100.00
2023-01-12T20:25:28.223Z,100.00
2023-01-12T20:27:55.076Z,100.00
2023-01-12T20:30:36.469Z,100.00
2023-01-12T20:33:04.080Z,100.00
2023-01-12T20:35:30.578Z,100.00
2023-01-12T20:37:56.966Z,100.00
2023-01-12T20:40:23.369Z,100.00
2023-01-12T20:42:49.798Z,100.00
2023-01-12T20:45:16.275Z,100.00
2023-01-12T20:47:42.701Z,100.00
2023-01-12T20:50:13.606Z,100.00
2023-01-12T20:52:40.275Z,100.00
2023-01-12T20:55:07.878Z,100.00
2023-01-12T20:57:38.731Z,100.00
2023-01-12T21:00:07.583Z,100.00
2023-01-12T21:02:35.814Z,100.00
2023-01-12T21:05:03.069Z,100.00
2023-01-12T21:07:29.749Z,100.00
2023-01-12T21:09:56.488Z,100.00
2023-01-12T21:12:23.967Z,100.00
2023-01-12T21:14:51.472Z,100.00
2023-01-12T21:17:18.415Z,100.00
2023-01-12T21:19:45.125Z,100.00
2023-01-12T21:22:12.249Z,100.00
2023-01-12T21:24:39.171Z,100.00
2023-01-12T21:27:06.432Z,100.00
2023-01-12T21:29:33.289Z,100.00
2023-01-12T21:31:59.846Z,100.00
2023-01-12T21:34:26.303Z,100.00
2023-01-12T21:36:52.905Z,100.00
2023-01-12T21:39:19.479Z,100.00
2023-01-12T21:42:04.542Z,100.00
2023-01-12T21:44:30.955Z,100.00
2023-01-12T21:46:57.348Z,100.00
2023-01-12T21:49:24.756Z,100.00
2023-01-12T21:51:51.189Z,100.00
2023-01-12T21:54:17.629Z,100.00
2023-01-12T21:56:44.134Z,100.00
2023-01-12T21:59:11.714Z,100.00
2023-01-12T22:01:38.255Z,100.00
2023-01-12T22:04:04.888Z,100.00
2023-01-12T22:06:31.315Z,100.00
2023-01-12T22:08:58.710Z,100.00
2023-01-12T22:11:25.396Z,100.00
2023-01-12T22:13:51.803Z,100.00
2023-01-12T22:16:18.304Z,100.00
2023-01-12T22:18:48.933Z,100.00
2023-01-12T22:21:16.643Z,100.00
2023-01-12T22:23:43.757Z,100.00
2023-01-12T22:26:12.371Z,100.00
2023-01-12T22:28:41.305Z,100.00
2023-01-12T22:31:14.921Z,100.00
2023-01-12T22:33:46.693Z,100.00
2023-01-12T22:36:13.331Z,100.00
2023-01-12T22:38:39.776Z,100.00
2023-01-12T22:41:11.109Z,100.00
2023-01-12T22:43:41.032Z,100.00
2023-01-12T22:46:13.454Z,100.00
2023-01-12T22:48:40.292Z,100.00
2023-01-12T22:51:07.848Z,100.00
2023-01-12T22:53:35.465Z,100.00
2023-01-12T22:56:04.101Z,100.00
2023-01-12T22:58:31.151Z,100.00
2023-01-12T23:01:09.091Z,100.00
2023-01-12T23:03:37.207Z,100.00
2023-01-12T23:06:04.530Z,100.00
2023-01-12T23:08:31.049Z,100.00
2023-01-12T23:11:10.631Z,100.00
2023-01-12T23:13:37.151Z,100.00
2023-01-12T23:16:06.352Z,100.00
2023-01-12T23:18:34.336Z,100.00
2023-01-12T23:21:11.234Z,100.00
2023-01-12T23:23:38.777Z,100.00
2023-01-12T23:26:06.895Z,100.00
2023-01-12T23:28:36.847Z,100.00
2023-01-12T23:31:08.945Z,100.00
2023-01-12T23:33:37.160Z,100.00
2023-01-12T23:36:06.752Z,100.00
2023-01-12T23:38:33.333Z,100.00
2023-01-12T23:40:59.965Z,100.00
2023-01-12T23:43:26.852Z,100.00
2023-01-12T23:45:53.421Z,100.00
2023-01-12T23:48:20.065Z,100.00
2023-01-12T23:50:46.554Z,100.00
2023-01-12T23:53:13.086Z,100.00
2023-01-12T23:55:39.738Z,100.00
2023-01-12T23:58:06.573Z,100.00
